Decoded Metar for OIAG (AGHAJARI in IRAN) (IATA:N/A) | Meteo·Mobile Aviation Weather
aviador You're here:

OIAG Decoded Metar

AGHAJARI in IRAN
Report Time2019-01-16 16:50:00
UTC Time2019-01-16 18:03:57
Flight Rules Old
Wind160° at 14 kt
W.Decomp.*RWY 13: 12.5 kt HW 6.4 kt RCW
W.Rank160° ranks 11
Current wind is above 160° avg. (7.3)
Visibility9999 m
Phenomena:N/A
Clouds:Few 040 Hf
Expected CloudBase > 2,400 ft AGL from Temp-Dew spread
CeilingNone
Temp21°C (ISA +6)
Dew Point15°C (69% RH)
AAT17.6°C
QNH1012 hPa
Density Alt1,079 ft
Elevation95 ft
Report Wrong Elevation
Raw Report
METAR OIAG 161650Z 16014KT 9999 FEW040 21/15 Q1012=

Extra information for OIAG:More info

Metar Taf Metar & Taf Last 4 Metars F.Rules Stats Wind Profile Meteogram Temp Stats Airport Information Weather charts Add Link Nearby VenuesMetar ALERT Operation Metar Decoded Social comments